sensor_id;sensor_type;location;lat;lon;timestamp;P1;durP1;ratioP1;P2;durP2;ratioP2
81926;SDS011;71389;51.556;4.640;2023-07-13T00:01:43;13.18;;;3.70;;
81926;SDS011;71389;51.556;4.640;2023-07-13T00:03:43;7.15;;;2.70;;
81926;SDS011;71389;51.556;4.640;2023-07-13T00:05:43;9.82;;;3.08;;
81926;SDS011;71389;51.556;4.640;2023-07-13T00:07:44;9.13;;;2.53;;
81926;SDS011;71389;51.556;4.640;2023-07-13T00:09:46;7.63;;;2.88;;
81926;SDS011;71389;51.556;4.640;2023-07-13T00:11:50;8.27;;;2.30;;
81926;SDS011;71389;51.556;4.640;2023-07-13T00:13:51;10.60;;;2.70;;
81926;SDS011;71389;51.556;4.640;2023-07-13T00:15:51;13.10;;;2.63;;
81926;SDS011;71389;51.556;4.640;2023-07-13T00:17:54;11.40;;;3.13;;
81926;SDS011;71389;51.556;4.640;2023-07-13T00:19:55;7.38;;;2.40;;
81926;SDS011;71389;51.556;4.640;2023-07-13T00:21:56;9.88;;;2.42;;
81926;SDS011;71389;51.556;4.640;2023-07-13T00:23:56;14.50;;;2.53;;
81926;SDS011;71389;51.556;4.640;2023-07-13T00:25:57;9.20;;;2.60;;
81926;SDS011;71389;51.556;4.640;2023-07-13T00:27:57;10.85;;;2.60;;
81926;SDS011;71389;51.556;4.640;2023-07-13T00:29:58;11.55;;;3.25;;
81926;SDS011;71389;51.556;4.640;2023-07-13T00:31:58;8.55;;;3.00;;
81926;SDS011;71389;51.556;4.640;2023-07-13T00:33:59;12.75;;;3.08;;
81926;SDS011;71389;51.556;4.640;2023-07-13T00:36:00;11.98;;;2.90;;
81926;SDS011;71389;51.556;4.640;2023-07-13T00:38:00;8.02;;;2.80;;
81926;SDS011;71389;51.556;4.640;2023-07-13T00:40:02;10.63;;;3.05;;
81926;SDS011;71389;51.556;4.640;2023-07-13T00:42:03;13.15;;;2.95;;
81926;SDS011;71389;51.556;4.640;2023-07-13T00:44:04;13.05;;;3.25;;
81926;SDS011;71389;51.556;4.640;2023-07-13T00:46:17;14.90;;;3.30;;
81926;SDS011;71389;51.556;4.640;2023-07-13T00:48:23;8.48;;;2.72;;
81926;SDS011;71389;51.556;4.640;2023-07-13T00:50:24;10.32;;;3.67;;
81926;SDS011;71389;51.556;4.640;2023-07-13T00:52:26;15.57;;;2.78;;
81926;SDS011;71389;51.556;4.640;2023-07-13T00:54:38;13.27;;;3.65;;
81926;SDS011;71389;51.556;4.640;2023-07-13T00:56:39;11.50;;;2.90;;
81926;SDS011;71389;51.556;4.640;2023-07-13T00:58:41;13.00;;;3.07;;
81926;SDS011;71389;51.556;4.640;2023-07-13T01:00:42;11.48;;;3.63;;
81926;SDS011;71389;51.556;4.640;2023-07-13T01:02:42;13.50;;;3.58;;
81926;SDS011;71389;51.556;4.640;2023-07-13T01:04:44;14.02;;;3.65;;
81926;SDS011;71389;51.556;4.640;2023-07-13T01:06:45;11.65;;;3.67;;
81926;SDS011;71389;51.556;4.640;2023-07-13T01:08:47;12.20;;;3.55;;
81926;SDS011;71389;51.556;4.640;2023-07-13T01:10:51;13.80;;;4.03;;
81926;SDS011;71389;51.556;4.640;2023-07-13T01:12:52;11.95;;;3.35;;
81926;SDS011;71389;51.556;4.640;2023-07-13T01:14:57;13.18;;;3.35;;
81926;SDS011;71389;51.556;4.640;2023-07-13T01:16:57;13.60;;;3.83;;
81926;SDS011;71389;51.556;4.640;2023-07-13T01:19:00;14.25;;;3.63;;
81926;SDS011;71389;51.556;4.640;2023-07-13T01:21:02;11.60;;;3.60;;
81926;SDS011;71389;51.556;4.640;2023-07-13T01:23:07;17.15;;;3.97;;
81926;SDS011;71389;51.556;4.640;2023-07-13T01:25:07;12.55;;;4.05;;
81926;SDS011;71389;51.556;4.640;2023-07-13T01:27:08;13.48;;;4.38;;
81926;SDS011;71389;51.556;4.640;2023-07-13T01:29:09;13.57;;;4.00;;
81926;SDS011;71389;51.556;4.640;2023-07-13T01:31:11;11.97;;;3.30;;
81926;SDS011;71389;51.556;4.640;2023-07-13T01:33:17;12.85;;;4.53;;
81926;SDS011;71389;51.556;4.640;2023-07-13T01:35:18;14.90;;;3.80;;
81926;SDS011;71389;51.556;4.640;2023-07-13T01:37:18;12.70;;;3.85;;
81926;SDS011;71389;51.556;4.640;2023-07-13T01:39:22;15.80;;;4.53;;
81926;SDS011;71389;51.556;4.640;2023-07-13T01:41:22;13.30;;;4.25;;
81926;SDS011;71389;51.556;4.640;2023-07-13T01:43:23;16.75;;;5.05;;
81926;SDS011;71389;51.556;4.640;2023-07-13T01:45:23;14.52;;;4.38;;
81926;SDS011;71389;51.556;4.640;2023-07-13T01:47:24;17.05;;;4.00;;
81926;SDS011;71389;51.556;4.640;2023-07-13T01:49:26;18.42;;;5.75;;
81926;SDS011;71389;51.556;4.640;2023-07-13T01:51:26;16.48;;;3.83;;
81926;SDS011;71389;51.556;4.640;2023-07-13T01:53:26;16.77;;;3.70;;
81926;SDS011;71389;51.556;4.640;2023-07-13T01:55:27;18.38;;;4.63;;
81926;SDS011;71389;51.556;4.640;2023-07-13T01:57:27;12.38;;;4.28;;
81926;SDS011;71389;51.556;4.640;2023-07-13T01:59:28;14.10;;;4.07;;
81926;SDS011;71389;51.556;4.640;2023-07-13T02:01:28;15.82;;;4.70;;
81926;SDS011;71389;51.556;4.640;2023-07-13T02:03:29;24.35;;;5.63;;
81926;SDS011;71389;51.556;4.640;2023-07-13T02:05:31;16.45;;;5.20;;
81926;SDS011;71389;51.556;4.640;2023-07-13T02:07:32;22.45;;;5.70;;
81926;SDS011;71389;51.556;4.640;2023-07-13T02:09:32;17.55;;;5.40;;
81926;SDS011;71389;51.556;4.640;2023-07-13T02:11:33;17.63;;;5.10;;
81926;SDS011;71389;51.556;4.640;2023-07-13T02:13:33;17.45;;;5.60;;
81926;SDS011;71389;51.556;4.640;2023-07-13T02:15:33;17.85;;;5.10;;
81926;SDS011;71389;51.556;4.640;2023-07-13T02:17:34;17.30;;;5.43;;
81926;SDS011;71389;51.556;4.640;2023-07-13T02:19:35;18.90;;;5.55;;
81926;SDS011;71389;51.556;4.640;2023-07-13T02:21:36;16.30;;;5.60;;
81926;SDS011;71389;51.556;4.640;2023-07-13T02:23:36;20.25;;;5.65;;
81926;SDS011;71389;51.556;4.640;2023-07-13T02:25:37;21.40;;;6.28;;
81926;SDS011;71389;51.556;4.640;2023-07-13T02:27:37;21.88;;;6.40;;
81926;SDS011;71389;51.556;4.640;2023-07-13T02:29:38;19.30;;;6.75;;
81926;SDS011;71389;51.556;4.640;2023-07-13T02:31:38;19.33;;;5.80;;
81926;SDS011;71389;51.556;4.640;2023-07-13T02:33:38;15.95;;;4.78;;
81926;SDS011;71389;51.556;4.640;2023-07-13T02:35:39;21.88;;;6.38;;
81926;SDS011;71389;51.556;4.640;2023-07-13T02:37:39;17.67;;;6.55;;
81926;SDS011;71389;51.556;4.640;2023-07-13T02:39:39;19.45;;;6.13;;
81926;SDS011;71389;51.556;4.640;2023-07-13T02:41:40;24.95;;;7.50;;
81926;SDS011;71389;51.556;4.640;2023-07-13T02:43:40;23.85;;;7.32;;
81926;SDS011;71389;51.556;4.640;2023-07-13T02:45:43;22.80;;;6.35;;
81926;SDS011;71389;51.556;4.640;2023-07-13T02:47:43;22.85;;;7.30;;
81926;SDS011;71389;51.556;4.640;2023-07-13T02:49:45;22.98;;;7.13;;
81926;SDS011;71389;51.556;4.640;2023-07-13T02:51:45;18.08;;;6.85;;
81926;SDS011;71389;51.556;4.640;2023-07-13T02:53:45;24.45;;;7.70;;
81926;SDS011;71389;51.556;4.640;2023-07-13T02:55:47;29.02;;;8.60;;
81926;SDS011;71389;51.556;4.640;2023-07-13T02:57:48;24.38;;;6.80;;
81926;SDS011;71389;51.556;4.640;2023-07-13T02:59:50;30.83;;;7.47;;
81926;SDS011;71389;51.556;4.640;2023-07-13T03:01:50;19.67;;;6.50;;
81926;SDS011;71389;51.556;4.640;2023-07-13T03:03:51;16.08;;;6.50;;
81926;SDS011;71389;51.556;4.640;2023-07-13T03:05:57;21.60;;;7.20;;
81926;SDS011;71389;51.556;4.640;2023-07-13T03:08:00;30.85;;;7.80;;
81926;SDS011;71389;51.556;4.640;2023-07-13T03:10:01;30.88;;;8.38;;
81926;SDS011;71389;51.556;4.640;2023-07-13T03:12:11;22.15;;;7.00;;
81926;SDS011;71389;51.556;4.640;2023-07-13T03:14:12;28.42;;;7.43;;
81926;SDS011;71389;51.556;4.640;2023-07-13T03:16:13;28.05;;;7.85;;
81926;SDS011;71389;51.556;4.640;2023-07-13T03:18:16;24.58;;;7.32;;
81926;SDS011;71389;51.556;4.640;2023-07-13T03:20:17;25.20;;;7.25;;
81926;SDS011;71389;51.556;4.640;2023-07-13T03:22:17;20.50;;;6.93;;
81926;SDS011;71389;51.556;4.640;2023-07-13T03:24:18;22.00;;;7.05;;
81926;SDS011;71389;51.556;4.640;2023-07-13T03:26:19;23.20;;;7.18;;
81926;SDS011;71389;51.556;4.640;2023-07-13T03:28:20;22.30;;;8.10;;
81926;SDS011;71389;51.556;4.640;2023-07-13T03:30:20;26.80;;;7.25;;
81926;SDS011;71389;51.556;4.640;2023-07-13T03:32:21;24.38;;;9.63;;
81926;SDS011;71389;51.556;4.640;2023-07-13T03:34:22;33.28;;;9.65;;
81926;SDS011;71389;51.556;4.640;2023-07-13T03:36:24;24.33;;;8.43;;
81926;SDS011;71389;51.556;4.640;2023-07-13T03:38:28;25.30;;;9.00;;
81926;SDS011;71389;51.556;4.640;2023-07-13T03:40:29;18.60;;;8.80;;
81926;SDS011;71389;51.556;4.640;2023-07-13T03:42:30;31.67;;;10.00;;
81926;SDS011;71389;51.556;4.640;2023-07-13T03:44:30;23.05;;;8.50;;
81926;SDS011;71389;51.556;4.640;2023-07-13T03:46:31;24.63;;;9.82;;
81926;SDS011;71389;51.556;4.640;2023-07-13T03:48:31;28.73;;;9.30;;
81926;SDS011;71389;51.556;4.640;2023-07-13T03:50:32;24.50;;;9.10;;
81926;SDS011;71389;51.556;4.640;2023-07-13T03:52:32;26.42;;;8.52;;
81926;SDS011;71389;51.556;4.640;2023-07-13T03:54:33;26.55;;;9.95;;
81926;SDS011;71389;51.556;4.640;2023-07-13T03:56:34;28.88;;;8.95;;
81926;SDS011;71389;51.556;4.640;2023-07-13T03:58:40;30.33;;;9.83;;
81926;SDS011;71389;51.556;4.640;2023-07-13T04:00:49;27.70;;;8.50;;
81926;SDS011;71389;51.556;4.640;2023-07-13T04:02:52;22.65;;;9.02;;
81926;SDS011;71389;51.556;4.640;2023-07-13T04:04:52;20.88;;;9.18;;
81926;SDS011;71389;51.556;4.640;2023-07-13T04:06:53;26.55;;;10.15;;
81926;SDS011;71389;51.556;4.640;2023-07-13T04:08:55;26.20;;;9.95;;
81926;SDS011;71389;51.556;4.640;2023-07-13T04:10:56;28.05;;;8.98;;
81926;SDS011;71389;51.556;4.640;2023-07-13T04:12:56;27.63;;;9.68;;
81926;SDS011;71389;51.556;4.640;2023-07-13T04:14:57;34.35;;;9.27;;
81926;SDS011;71389;51.556;4.640;2023-07-13T04:16:57;23.70;;;9.73;;
81926;SDS011;71389;51.556;4.640;2023-07-13T04:18:57;24.02;;;8.98;;
81926;SDS011;71389;51.556;4.640;2023-07-13T04:20:59;30.25;;;10.05;;
81926;SDS011;71389;51.556;4.640;2023-07-13T04:23:00;24.20;;;10.20;;
81926;SDS011;71389;51.556;4.640;2023-07-13T04:25:00;30.15;;;9.77;;
81926;SDS011;71389;51.556;4.640;2023-07-13T04:27:01;24.83;;;9.60;;
81926;SDS011;71389;51.556;4.640;2023-07-13T04:29:03;29.23;;;10.63;;
81926;SDS011;71389;51.556;4.640;2023-07-13T04:31:04;29.88;;;10.30;;
81926;SDS011;71389;51.556;4.640;2023-07-13T04:33:04;27.67;;;11.13;;
81926;SDS011;71389;51.556;4.640;2023-07-13T04:35:05;33.88;;;11.02;;
81926;SDS011;71389;51.556;4.640;2023-07-13T04:37:05;22.05;;;10.23;;
81926;SDS011;71389;51.556;4.640;2023-07-13T04:39:06;24.42;;;10.45;;
81926;SDS011;71389;51.556;4.640;2023-07-13T04:41:07;23.63;;;10.55;;
81926;SDS011;71389;51.556;4.640;2023-07-13T04:43:08;25.27;;;9.88;;
81926;SDS011;71389;51.556;4.640;2023-07-13T04:45:08;31.38;;;10.63;;
81926;SDS011;71389;51.556;4.640;2023-07-13T04:47:09;29.48;;;10.88;;
81926;SDS011;71389;51.556;4.640;2023-07-13T04:49:09;30.23;;;11.10;;
81926;SDS011;71389;51.556;4.640;2023-07-13T04:51:10;32.60;;;11.15;;
81926;SDS011;71389;51.556;4.640;2023-07-13T04:53:11;26.23;;;11.40;;
81926;SDS011;71389;51.556;4.640;2023-07-13T04:55:11;33.42;;;11.15;;
81926;SDS011;71389;51.556;4.640;2023-07-13T04:57:11;24.83;;;10.43;;
81926;SDS011;71389;51.556;4.640;2023-07-13T04:59:12;27.95;;;12.18;;
81926;SDS011;71389;51.556;4.640;2023-07-13T05:01:12;33.58;;;12.60;;
81926;SDS011;71389;51.556;4.640;2023-07-13T05:03:13;24.40;;;11.18;;
81926;SDS011;71389;51.556;4.640;2023-07-13T05:05:14;28.95;;;12.75;;
81926;SDS011;71389;51.556;4.640;2023-07-13T05:07:14;26.55;;;13.07;;
81926;SDS011;71389;51.556;4.640;2023-07-13T05:09:15;22.48;;;11.23;;
81926;SDS011;71389;51.556;4.640;2023-07-13T05:11:15;29.85;;;12.63;;
81926;SDS011;71389;51.556;4.640;2023-07-13T05:13:15;30.45;;;13.50;;
81926;SDS011;71389;51.556;4.640;2023-07-13T05:15:16;30.75;;;14.20;;
81926;SDS011;71389;51.556;4.640;2023-07-13T05:17:20;40.20;;;15.50;;
81926;SDS011;71389;51.556;4.640;2023-07-13T05:19:21;34.78;;;13.63;;
81926;SDS011;71389;51.556;4.640;2023-07-13T05:21:21;33.13;;;14.48;;
81926;SDS011;71389;51.556;4.640;2023-07-13T05:23:21;30.67;;;13.75;;
81926;SDS011;71389;51.556;4.640;2023-07-13T05:25:22;31.00;;;16.13;;
81926;SDS011;71389;51.556;4.640;2023-07-13T05:27:22;32.72;;;15.88;;
81926;SDS011;71389;51.556;4.640;2023-07-13T05:29:23;32.28;;;15.18;;
81926;SDS011;71389;51.556;4.640;2023-07-13T05:31:23;35.03;;;15.73;;
81926;SDS011;71389;51.556;4.640;2023-07-13T05:33:24;30.27;;;14.70;;
81926;SDS011;71389;51.556;4.640;2023-07-13T05:35:24;41.90;;;16.90;;
81926;SDS011;71389;51.556;4.640;2023-07-13T05:37:25;35.65;;;17.15;;
81926;SDS011;71389;51.556;4.640;2023-07-13T05:39:25;38.58;;;17.17;;
81926;SDS011;71389;51.556;4.640;2023-07-13T05:41:27;37.38;;;16.15;;
81926;SDS011;71389;51.556;4.640;2023-07-13T05:43:27;38.38;;;15.32;;
81926;SDS011;71389;51.556;4.640;2023-07-13T05:45:28;38.30;;;15.45;;
81926;SDS011;71389;51.556;4.640;2023-07-13T05:47:28;30.27;;;14.27;;
81926;SDS011;71389;51.556;4.640;2023-07-13T05:49:32;28.92;;;13.00;;
81926;SDS011;71389;51.556;4.640;2023-07-13T05:51:32;27.85;;;14.13;;
81926;SDS011;71389;51.556;4.640;2023-07-13T05:53:33;34.97;;;14.02;;
81926;SDS011;71389;51.556;4.640;2023-07-13T05:55:42;28.27;;;14.00;;
81926;SDS011;71389;51.556;4.640;2023-07-13T05:57:43;22.75;;;12.82;;
81926;SDS011;71389;51.556;4.640;2023-07-13T05:59:43;30.30;;;13.10;;
81926;SDS011;71389;51.556;4.640;2023-07-13T06:01:44;27.70;;;12.57;;
81926;SDS011;71389;51.556;4.640;2023-07-13T06:03:44;27.45;;;11.65;;
81926;SDS011;71389;51.556;4.640;2023-07-13T06:05:45;29.83;;;13.00;;
81926;SDS011;71389;51.556;4.640;2023-07-13T06:07:45;32.20;;;12.07;;
81926;SDS011;71389;51.556;4.640;2023-07-13T06:09:46;28.55;;;12.20;;
81926;SDS011;71389;51.556;4.640;2023-07-13T06:11:46;31.80;;;11.75;;
81926;SDS011;71389;51.556;4.640;2023-07-13T06:13:49;28.02;;;10.60;;
81926;SDS011;71389;51.556;4.640;2023-07-13T06:15:50;27.17;;;10.80;;
81926;SDS011;71389;51.556;4.640;2023-07-13T06:17:50;33.70;;;10.48;;
81926;SDS011;71389;51.556;4.640;2023-07-13T06:19:51;27.48;;;11.18;;
81926;SDS011;71389;51.556;4.640;2023-07-13T06:21:55;23.13;;;10.10;;
81926;SDS011;71389;51.556;4.640;2023-07-13T06:23:55;27.52;;;10.65;;
81926;SDS011;71389;51.556;4.640;2023-07-13T06:25:56;25.98;;;9.48;;
81926;SDS011;71389;51.556;4.640;2023-07-13T06:27:56;29.23;;;10.38;;
81926;SDS011;71389;51.556;4.640;2023-07-13T06:29:57;25.95;;;10.82;;
81926;SDS011;71389;51.556;4.640;2023-07-13T06:31:57;30.00;;;11.43;;
81926;SDS011;71389;51.556;4.640;2023-07-13T06:33:57;26.05;;;10.48;;
81926;SDS011;71389;51.556;4.640;2023-07-13T06:36:01;25.02;;;10.20;;
81926;SDS011;71389;51.556;4.640;2023-07-13T06:38:02;24.58;;;9.52;;
81926;SDS011;71389;51.556;4.640;2023-07-13T06:40:02;19.85;;;8.35;;
81926;SDS011;71389;51.556;4.640;2023-07-13T06:42:04;18.02;;;9.32;;
81926;SDS011;71389;51.556;4.640;2023-07-13T06:44:05;20.20;;;8.13;;
81926;SDS011;71389;51.556;4.640;2023-07-13T06:46:06;25.23;;;9.80;;
81926;SDS011;71389;51.556;4.640;2023-07-13T06:48:07;21.00;;;8.20;;
81926;SDS011;71389;51.556;4.640;2023-07-13T06:50:07;21.30;;;7.70;;
81926;SDS011;71389;51.556;4.640;2023-07-13T06:52:08;19.75;;;7.95;;
81926;SDS011;71389;51.556;4.640;2023-07-13T06:54:08;18.98;;;6.93;;
81926;SDS011;71389;51.556;4.640;2023-07-13T06:56:09;20.02;;;7.05;;
81926;SDS011;71389;51.556;4.640;2023-07-13T06:58:10;24.88;;;7.30;;
81926;SDS011;71389;51.556;4.640;2023-07-13T07:00:11;21.25;;;7.13;;
81926;SDS011;71389;51.556;4.640;2023-07-13T07:02:11;17.20;;;6.07;;
81926;SDS011;71389;51.556;4.640;2023-07-13T07:04:15;15.85;;;6.05;;
81926;SDS011;71389;51.556;4.640;2023-07-13T07:06:16;18.45;;;6.03;;
81926;SDS011;71389;51.556;4.640;2023-07-13T07:08:20;20.58;;;5.95;;
81926;SDS011;71389;51.556;4.640;2023-07-13T07:10:20;16.40;;;6.53;;
81926;SDS011;71389;51.556;4.640;2023-07-13T07:12:21;18.63;;;6.13;;
81926;SDS011;71389;51.556;4.640;2023-07-13T07:14:24;22.23;;;7.40;;
81926;SDS011;71389;51.556;4.640;2023-07-13T07:16:25;17.77;;;6.18;;
81926;SDS011;71389;51.556;4.640;2023-07-13T07:18:25;19.00;;;6.25;;
81926;SDS011;71389;51.556;4.640;2023-07-13T07:20:26;19.27;;;6.13;;
81926;SDS011;71389;51.556;4.640;2023-07-13T07:22:27;15.73;;;5.35;;
81926;SDS011;71389;51.556;4.640;2023-07-13T07:24:27;20.42;;;5.40;;
81926;SDS011;71389;51.556;4.640;2023-07-13T07:26:28;23.92;;;6.57;;
81926;SDS011;71389;51.556;4.640;2023-07-13T07:28:28;16.17;;;5.18;;
81926;SDS011;71389;51.556;4.640;2023-07-13T07:30:29;12.68;;;5.55;;
81926;SDS011;71389;51.556;4.640;2023-07-13T07:32:30;15.57;;;5.28;;
81926;SDS011;71389;51.556;4.640;2023-07-13T07:34:30;16.55;;;5.35;;
81926;SDS011;71389;51.556;4.640;2023-07-13T07:36:31;10.65;;;4.32;;
81926;SDS011;71389;51.556;4.640;2023-07-13T07:38:32;16.80;;;4.90;;
81926;SDS011;71389;51.556;4.640;2023-07-13T07:40:32;14.38;;;4.10;;
81926;SDS011;71389;51.556;4.640;2023-07-13T07:42:36;9.85;;;3.97;;
81926;SDS011;71389;51.556;4.640;2023-07-13T07:44:36;14.95;;;4.65;;
81926;SDS011;71389;51.556;4.640;2023-07-13T07:46:36;10.45;;;4.10;;
81926;SDS011;71389;51.556;4.640;2023-07-13T07:48:37;14.35;;;4.72;;
81926;SDS011;71389;51.556;4.640;2023-07-13T07:50:37;14.65;;;4.68;;
81926;SDS011;71389;51.556;4.640;2023-07-13T07:52:39;16.80;;;4.93;;
81926;SDS011;71389;51.556;4.640;2023-07-13T07:54:39;14.20;;;4.60;;
81926;SDS011;71389;51.556;4.640;2023-07-13T07:56:39;12.52;;;3.53;;
81926;SDS011;71389;51.556;4.640;2023-07-13T07:58:40;13.32;;;4.28;;
81926;SDS011;71389;51.556;4.640;2023-07-13T08:00:40;14.23;;;4.38;;
81926;SDS011;71389;51.556;4.640;2023-07-13T08:02:43;13.40;;;4.45;;
81926;SDS011;71389;51.556;4.640;2023-07-13T08:06:44;11.40;;;3.58;;
81926;SDS011;71389;51.556;4.640;2023-07-13T08:08:44;13.02;;;3.17;;
81926;SDS011;71389;51.556;4.640;2023-07-13T08:10:44;8.23;;;3.85;;
81926;SDS011;71389;51.556;4.640;2023-07-13T08:12:45;9.27;;;3.45;;
81926;SDS011;71389;51.556;4.640;2023-07-13T08:14:45;10.77;;;3.78;;
81926;SDS011;71389;51.556;4.640;2023-07-13T08:16:49;16.40;;;4.97;;
81926;SDS011;71389;51.556;4.640;2023-07-13T08:18:50;13.38;;;4.47;;
81926;SDS011;71389;51.556;4.640;2023-07-13T08:20:50;14.52;;;4.28;;
81926;SDS011;71389;51.556;4.640;2023-07-13T08:22:51;15.77;;;4.40;;
81926;SDS011;71389;51.556;4.640;2023-07-13T08:24:51;12.15;;;4.35;;
81926;SDS011;71389;51.556;4.640;2023-07-13T08:26:56;14.93;;;4.55;;
81926;SDS011;71389;51.556;4.640;2023-07-13T08:28:56;12.63;;;4.13;;
81926;SDS011;71389;51.556;4.640;2023-07-13T08:31:03;12.05;;;3.72;;
81926;SDS011;71389;51.556;4.640;2023-07-13T08:33:04;12.65;;;3.53;;
81926;SDS011;71389;51.556;4.640;2023-07-13T08:35:05;13.63;;;4.32;;
81926;SDS011;71389;51.556;4.640;2023-07-13T08:37:05;12.85;;;3.92;;
81926;SDS011;71389;51.556;4.640;2023-07-13T08:39:06;11.50;;;4.28;;
81926;SDS011;71389;51.556;4.640;2023-07-13T08:41:14;14.27;;;3.58;;
81926;SDS011;71389;51.556;4.640;2023-07-13T08:43:18;13.27;;;4.03;;
81926;SDS011;71389;51.556;4.640;2023-07-13T08:47:23;9.20;;;3.63;;
81926;SDS011;71389;51.556;4.640;2023-07-13T08:49:24;10.68;;;3.88;;
81926;SDS011;71389;51.556;4.640;2023-07-13T08:53:35;11.02;;;3.22;;
81926;SDS011;71389;51.556;4.640;2023-07-13T08:55:36;12.88;;;3.50;;
81926;SDS011;71389;51.556;4.640;2023-07-13T08:57:39;7.40;;;3.47;;
81926;SDS011;71389;51.556;4.640;2023-07-13T08:59:40;9.50;;;3.53;;
81926;SDS011;71389;51.556;4.640;2023-07-13T09:03:57;10.50;;;3.35;;
81926;SDS011;71389;51.556;4.640;2023-07-13T09:05:59;9.48;;;3.63;;
81926;SDS011;71389;51.556;4.640;2023-07-13T09:10:27;7.63;;;2.78;;
81926;SDS011;71389;51.556;4.640;2023-07-13T09:16:34;8.18;;;3.28;;
81926;SDS011;71389;51.556;4.640;2023-07-13T09:18:44;9.03;;;2.90;;
81926;SDS011;71389;51.556;4.640;2023-07-13T09:20:49;7.72;;;2.20;;
81926;SDS011;71389;51.556;4.640;2023-07-13T09:22:51;6.85;;;2.35;;
81926;SDS011;71389;51.556;4.640;2023-07-13T09:27:21;6.68;;;2.00;;
81926;SDS011;71389;51.556;4.640;2023-07-13T09:29:32;9.35;;;2.55;;
81926;SDS011;71389;51.556;4.640;2023-07-13T09:33:35;8.00;;;2.72;;
81926;SDS011;71389;51.556;4.640;2023-07-13T09:35:35;9.95;;;2.85;;
81926;SDS011;71389;51.556;4.640;2023-07-13T09:37:36;9.82;;;3.17;;
81926;SDS011;71389;51.556;4.640;2023-07-13T09:39:39;10.00;;;2.97;;
81926;SDS011;71389;51.556;4.640;2023-07-13T09:41:48;7.75;;;2.35;;
81926;SDS011;71389;51.556;4.640;2023-07-13T09:44:09;6.60;;;2.10;;
81926;SDS011;71389;51.556;4.640;2023-07-13T09:46:19;7.15;;;2.25;;
81926;SDS011;71389;51.556;4.640;2023-07-13T09:48:21;7.38;;;2.35;;
81926;SDS011;71389;51.556;4.640;2023-07-13T09:50:21;7.78;;;2.50;;
81926;SDS011;71389;51.556;4.640;2023-07-13T09:52:22;8.98;;;2.70;;
81926;SDS011;71389;51.556;4.640;2023-07-13T09:54:24;6.35;;;2.53;;
81926;SDS011;71389;51.556;4.640;2023-07-13T09:56:26;8.07;;;2.55;;
81926;SDS011;71389;51.556;4.640;2023-07-13T09:58:29;9.27;;;3.03;;
81926;SDS011;71389;51.556;4.640;2023-07-13T10:00:30;10.30;;;3.00;;
81926;SDS011;71389;51.556;4.640;2023-07-13T10:02:32;7.55;;;2.42;;
81926;SDS011;71389;51.556;4.640;2023-07-13T10:04:33;12.13;;;2.88;;
81926;SDS011;71389;51.556;4.640;2023-07-13T10:06:34;8.77;;;2.80;;
81926;SDS011;71389;51.556;4.640;2023-07-13T10:08:34;9.60;;;2.65;;
81926;SDS011;71389;51.556;4.640;2023-07-13T10:10:35;9.90;;;3.08;;
81926;SDS011;71389;51.556;4.640;2023-07-13T10:12:39;10.63;;;2.95;;
81926;SDS011;71389;51.556;4.640;2023-07-13T10:14:39;7.35;;;2.70;;
81926;SDS011;71389;51.556;4.640;2023-07-13T10:16:42;10.10;;;3.40;;
81926;SDS011;71389;51.556;4.640;2023-07-13T10:18:48;9.82;;;2.83;;
81926;SDS011;71389;51.556;4.640;2023-07-13T10:20:50;12.27;;;2.83;;
81926;SDS011;71389;51.556;4.640;2023-07-13T10:23:00;8.93;;;2.78;;
81926;SDS011;71389;51.556;4.640;2023-07-13T10:25:07;5.72;;;1.95;;
81926;SDS011;71389;51.556;4.640;2023-07-13T10:27:16;7.45;;;2.03;;
81926;SDS011;71389;51.556;4.640;2023-07-13T10:29:16;5.15;;;1.90;;
81926;SDS011;71389;51.556;4.640;2023-07-13T10:31:18;5.18;;;1.77;;
81926;SDS011;71389;51.556;4.640;2023-07-13T10:33:19;6.10;;;2.50;;
81926;SDS011;71389;51.556;4.640;2023-07-13T10:35:21;6.35;;;2.20;;
81926;SDS011;71389;51.556;4.640;2023-07-13T10:37:23;6.78;;;1.90;;
81926;SDS011;71389;51.556;4.640;2023-07-13T10:39:28;6.75;;;2.30;;
81926;SDS011;71389;51.556;4.640;2023-07-13T10:41:29;6.57;;;2.20;;
81926;SDS011;71389;51.556;4.640;2023-07-13T10:43:34;6.13;;;2.10;;
81926;SDS011;71389;51.556;4.640;2023-07-13T10:45:38;5.63;;;2.50;;
81926;SDS011;71389;51.556;4.640;2023-07-13T10:47:39;7.55;;;2.60;;
81926;SDS011;71389;51.556;4.640;2023-07-13T10:49:40;6.53;;;2.15;;
81926;SDS011;71389;51.556;4.640;2023-07-13T10:51:41;6.72;;;2.28;;
81926;SDS011;71389;51.556;4.640;2023-07-13T10:53:41;7.68;;;2.30;;
81926;SDS011;71389;51.556;4.640;2023-07-13T10:57:43;5.53;;;2.13;;
81926;SDS011;71389;51.556;4.640;2023-07-13T10:59:46;7.07;;;2.22;;
81926;SDS011;71389;51.556;4.640;2023-07-13T11:04:00;4.28;;;1.67;;
81926;SDS011;71389;51.556;4.640;2023-07-13T11:10:45;8.05;;;1.92;;
81926;SDS011;71389;51.556;4.640;2023-07-13T11:16:54;5.97;;;1.95;;
81926;SDS011;71389;51.556;4.640;2023-07-13T11:21:18;4.97;;;1.90;;
81926;SDS011;71389;51.556;4.640;2023-07-13T11:23:20;5.68;;;2.22;;
81926;SDS011;71389;51.556;4.640;2023-07-13T11:29:36;4.97;;;1.77;;
81926;SDS011;71389;51.556;4.640;2023-07-13T11:31:37;4.05;;;1.80;;
81926;SDS011;71389;51.556;4.640;2023-07-13T11:35:41;8.25;;;2.17;;
81926;SDS011;71389;51.556;4.640;2023-07-13T11:37:44;5.22;;;1.80;;
81926;SDS011;71389;51.556;4.640;2023-07-13T11:39:45;3.70;;;1.40;;
81926;SDS011;71389;51.556;4.640;2023-07-13T11:41:54;4.13;;;1.73;;
81926;SDS011;71389;51.556;4.640;2023-07-13T11:44:07;4.40;;;2.30;;
81926;SDS011;71389;51.556;4.640;2023-07-13T11:46:20;6.20;;;2.08;;
81926;SDS011;71389;51.556;4.640;2023-07-13T11:48:27;4.88;;;2.17;;
81926;SDS011;71389;51.556;4.640;2023-07-13T11:50:27;9.07;;;2.40;;
81926;SDS011;71389;51.556;4.640;2023-07-13T11:52:31;5.57;;;2.13;;
81926;SDS011;71389;51.556;4.640;2023-07-13T11:54:33;7.57;;;2.47;;
81926;SDS011;71389;51.556;4.640;2023-07-13T11:56:34;4.28;;;1.90;;
81926;SDS011;71389;51.556;4.640;2023-07-13T11:58:36;3.97;;;1.85;;
81926;SDS011;71389;51.556;4.640;2023-07-13T12:00:37;6.00;;;2.00;;
81926;SDS011;71389;51.556;4.640;2023-07-13T12:02:39;5.05;;;2.38;;
81926;SDS011;71389;51.556;4.640;2023-07-13T12:04:42;5.28;;;1.95;;
81926;SDS011;71389;51.556;4.640;2023-07-13T12:06:42;5.47;;;2.05;;
81926;SDS011;71389;51.556;4.640;2023-07-13T12:08:43;7.70;;;1.92;;
81926;SDS011;71389;51.556;4.640;2023-07-13T12:10:43;7.35;;;1.92;;
81926;SDS011;71389;51.556;4.640;2023-07-13T12:13:05;5.40;;;2.00;;
81926;SDS011;71389;51.556;4.640;2023-07-13T12:15:10;7.28;;;2.08;;
81926;SDS011;71389;51.556;4.640;2023-07-13T12:17:17;4.65;;;1.80;;
81926;SDS011;71389;51.556;4.640;2023-07-13T12:19:28;7.90;;;2.22;;
81926;SDS011;71389;51.556;4.640;2023-07-13T12:23:32;5.88;;;1.80;;
81926;SDS011;71389;51.556;4.640;2023-07-13T12:25:33;8.60;;;3.00;;
81926;SDS011;71389;51.556;4.640;2023-07-13T12:27:34;9.23;;;3.63;;
81926;SDS011;71389;51.556;4.640;2023-07-13T12:29:34;11.10;;;3.58;;
81926;SDS011;71389;51.556;4.640;2023-07-13T12:31:35;6.32;;;3.10;;
81926;SDS011;71389;51.556;4.640;2023-07-13T12:33:39;7.40;;;2.58;;
81926;SDS011;71389;51.556;4.640;2023-07-13T12:35:47;6.18;;;2.25;;
81926;SDS011;71389;51.556;4.640;2023-07-13T12:37:51;4.97;;;2.50;;
81926;SDS011;71389;51.556;4.640;2023-07-13T12:39:56;5.65;;;2.88;;
81926;SDS011;71389;51.556;4.640;2023-07-13T12:44:31;4.88;;;2.30;;
81926;SDS011;71389;51.556;4.640;2023-07-13T12:46:31;4.40;;;2.53;;
81926;SDS011;71389;51.556;4.640;2023-07-13T12:48:38;6.28;;;2.45;;
81926;SDS011;71389;51.556;4.640;2023-07-13T12:50:42;6.75;;;2.80;;